sensor_id;sensor_type;location;lat;lon;timestamp;P1;durP1;ratioP1;P2;durP2;ratioP2
67231;SDS011;54145;49.798;-97.162;2023-11-21T00:00:32;0.50;;;0.45;;
67231;SDS011;54145;49.798;-97.162;2023-11-21T00:02:32;0.25;;;0.25;;
67231;SDS011;54145;49.798;-97.162;2023-11-21T00:04:33;0.50;;;0.40;;
67231;SDS011;54145;49.798;-97.162;2023-11-21T00:06:34;0.43;;;0.40;;
67231;SDS011;54145;49.798;-97.162;2023-11-21T00:08:35;1.13;;;0.70;;
67231;SDS011;54145;49.798;-97.162;2023-11-21T00:10:36;0.77;;;0.40;;
67231;SDS011;54145;49.798;-97.162;2023-11-21T00:14:42;1.23;;;0.65;;
67231;SDS011;54145;49.798;-97.162;2023-11-21T00:16:43;5.88;;;0.65;;
67231;SDS011;54145;49.798;-97.162;2023-11-21T00:18:44;0.70;;;0.50;;
67231;SDS011;54145;49.798;-97.162;2023-11-21T00:20:49;0.38;;;0.30;;
67231;SDS011;54145;49.798;-97.162;2023-11-21T00:22:50;0.70;;;0.50;;
67231;SDS011;54145;49.798;-97.162;2023-11-21T00:24:51;3.35;;;0.50;;
67231;SDS011;54145;49.798;-97.162;2023-11-21T00:26:52;0.50;;;0.40;;
67231;SDS011;54145;49.798;-97.162;2023-11-21T00:28:53;1.10;;;0.53;;
67231;SDS011;54145;49.798;-97.162;2023-11-21T00:30:54;0.45;;;0.40;;
67231;SDS011;54145;49.798;-97.162;2023-11-21T00:32:54;0.60;;;0.28;;
67231;SDS011;54145;49.798;-97.162;2023-11-21T00:34:55;0.40;;;0.40;;
67231;SDS011;54145;49.798;-97.162;2023-11-21T00:36:56;2.45;;;0.68;;
67231;SDS011;54145;49.798;-97.162;2023-11-21T00:38:56;0.40;;;0.40;;
67231;SDS011;54145;49.798;-97.162;2023-11-21T00:40:57;0.30;;;0.30;;
67231;SDS011;54145;49.798;-97.162;2023-11-21T00:42:58;0.40;;;0.40;;
67231;SDS011;54145;49.798;-97.162;2023-11-21T00:44:59;0.28;;;0.28;;
67231;SDS011;54145;49.798;-97.162;2023-11-21T00:47:00;3.33;;;0.50;;
67231;SDS011;54145;49.798;-97.162;2023-11-21T00:49:03;0.40;;;0.40;;
67231;SDS011;54145;49.798;-97.162;2023-11-21T00:51:08;1.17;;;1.08;;
67231;SDS011;54145;49.798;-97.162;2023-11-21T00:53:08;0.30;;;0.30;;
67231;SDS011;54145;49.798;-97.162;2023-11-21T00:55:09;0.45;;;0.20;;
67231;SDS011;54145;49.798;-97.162;2023-11-21T00:57:12;0.47;;;0.47;;
67231;SDS011;54145;49.798;-97.162;2023-11-21T00:59:13;0.30;;;0.30;;
67231;SDS011;54145;49.798;-97.162;2023-11-21T01:01:13;1.38;;;0.40;;
67231;SDS011;54145;49.798;-97.162;2023-11-21T01:03:17;0.35;;;0.32;;
67231;SDS011;54145;49.798;-97.162;2023-11-21T01:05:18;2.40;;;1.00;;
67231;SDS011;54145;49.798;-97.162;2023-11-21T01:07:20;6.13;;;1.58;;
67231;SDS011;54145;49.798;-97.162;2023-11-21T01:09:20;5.38;;;1.17;;
67231;SDS011;54145;49.798;-97.162;2023-11-21T01:11:21;2.30;;;0.70;;
67231;SDS011;54145;49.798;-97.162;2023-11-21T01:13:22;1.40;;;0.45;;
67231;SDS011;54145;49.798;-97.162;2023-11-21T01:15:22;0.95;;;0.28;;
67231;SDS011;54145;49.798;-97.162;2023-11-21T01:17:26;1.35;;;0.40;;
67231;SDS011;54145;49.798;-97.162;2023-11-21T01:19:27;0.43;;;0.25;;
67231;SDS011;54145;49.798;-97.162;2023-11-21T01:21:29;0.10;;;0.10;;
67231;SDS011;54145;49.798;-97.162;2023-11-21T01:23:30;0.20;;;0.20;;
67231;SDS011;54145;49.798;-97.162;2023-11-21T01:25:31;0.22;;;0.22;;
67231;SDS011;54145;49.798;-97.162;2023-11-21T01:27:41;0.30;;;0.22;;
67231;SDS011;54145;49.798;-97.162;2023-11-21T01:29:42;0.55;;;0.25;;
67231;SDS011;54145;49.798;-97.162;2023-11-21T01:31:42;2.75;;;0.35;;
67231;SDS011;54145;49.798;-97.162;2023-11-21T01:33:43;0.30;;;0.30;;
67231;SDS011;54145;49.798;-97.162;2023-11-21T01:35:44;0.20;;;0.20;;
67231;SDS011;54145;49.798;-97.162;2023-11-21T01:37:46;0.52;;;0.30;;
67231;SDS011;54145;49.798;-97.162;2023-11-21T01:39:48;1.55;;;0.50;;
67231;SDS011;54145;49.798;-97.162;2023-11-21T01:41:50;0.28;;;0.20;;
67231;SDS011;54145;49.798;-97.162;2023-11-21T01:43:52;0.50;;;0.35;;
67231;SDS011;54145;49.798;-97.162;2023-11-21T01:45:54;1.40;;;0.93;;
67231;SDS011;54145;49.798;-97.162;2023-11-21T01:47:57;0.60;;;0.57;;
67231;SDS011;54145;49.798;-97.162;2023-11-21T01:49:58;2.38;;;0.73;;
67231;SDS011;54145;49.798;-97.162;2023-11-21T01:51:59;0.60;;;0.40;;
67231;SDS011;54145;49.798;-97.162;2023-11-21T01:54:00;0.30;;;0.20;;
67231;SDS011;54145;49.798;-97.162;2023-11-21T01:56:01;0.28;;;0.28;;
67231;SDS011;54145;49.798;-97.162;2023-11-21T01:58:02;0.30;;;0.25;;
67231;SDS011;54145;49.798;-97.162;2023-11-21T02:02:17;2.70;;;0.40;;
67231;SDS011;54145;49.798;-97.162;2023-11-21T02:04:17;0.28;;;0.28;;
67231;SDS011;54145;49.798;-97.162;2023-11-21T02:06:18;0.20;;;0.20;;
67231;SDS011;54145;49.798;-97.162;2023-11-21T02:08:19;0.32;;;0.30;;
67231;SDS011;54145;49.798;-97.162;2023-11-21T02:10:19;0.30;;;0.30;;
67231;SDS011;54145;49.798;-97.162;2023-11-21T02:12:25;0.30;;;0.30;;
67231;SDS011;54145;49.798;-97.162;2023-11-21T02:14:28;0.40;;;0.30;;
67231;SDS011;54145;49.798;-97.162;2023-11-21T02:16:29;0.27;;;0.20;;
67231;SDS011;54145;49.798;-97.162;2023-11-21T02:18:31;0.32;;;0.22;;
67231;SDS011;54145;49.798;-97.162;2023-11-21T02:20:32;0.32;;;0.30;;
67231;SDS011;54145;49.798;-97.162;2023-11-21T02:22:35;1.10;;;0.38;;
67231;SDS011;54145;49.798;-97.162;2023-11-21T02:24:39;0.20;;;0.20;;
67231;SDS011;54145;49.798;-97.162;2023-11-21T02:26:42;0.20;;;0.20;;
67231;SDS011;54145;49.798;-97.162;2023-11-21T02:28:43;0.75;;;0.30;;
67231;SDS011;54145;49.798;-97.162;2023-11-21T02:30:44;0.28;;;0.28;;
67231;SDS011;54145;49.798;-97.162;2023-11-21T02:32:44;0.80;;;0.20;;
67231;SDS011;54145;49.798;-97.162;2023-11-21T02:34:46;0.50;;;0.20;;
67231;SDS011;54145;49.798;-97.162;2023-11-21T02:36:49;0.20;;;0.10;;
67231;SDS011;54145;49.798;-97.162;2023-11-21T02:38:50;0.22;;;0.20;;
67231;SDS011;54145;49.798;-97.162;2023-11-21T02:40:50;0.20;;;0.20;;
67231;SDS011;54145;49.798;-97.162;2023-11-21T02:42:51;0.65;;;0.20;;
67231;SDS011;54145;49.798;-97.162;2023-11-21T02:44:52;0.05;;;0.05;;
67231;SDS011;54145;49.798;-97.162;2023-11-21T02:46:55;1.05;;;0.40;;
67231;SDS011;54145;49.798;-97.162;2023-11-21T02:48:58;0.22;;;0.22;;
67231;SDS011;54145;49.798;-97.162;2023-11-21T02:50:58;0.20;;;0.20;;
67231;SDS011;54145;49.798;-97.162;2023-11-21T02:52:59;0.30;;;0.20;;
67231;SDS011;54145;49.798;-97.162;2023-11-21T02:55:00;0.22;;;0.20;;
67231;SDS011;54145;49.798;-97.162;2023-11-21T02:57:01;0.10;;;0.10;;
67231;SDS011;54145;49.798;-97.162;2023-11-21T02:59:03;0.30;;;0.20;;
67231;SDS011;54145;49.798;-97.162;2023-11-21T03:01:03;0.30;;;0.30;;
67231;SDS011;54145;49.798;-97.162;2023-11-21T03:03:05;0.47;;;0.30;;
67231;SDS011;54145;49.798;-97.162;2023-11-21T03:05:06;0.55;;;0.25;;
67231;SDS011;54145;49.798;-97.162;2023-11-21T03:07:09;0.43;;;0.20;;
67231;SDS011;54145;49.798;-97.162;2023-11-21T03:09:10;0.47;;;0.32;;
67231;SDS011;54145;49.798;-97.162;2023-11-21T03:11:12;0.45;;;0.30;;
67231;SDS011;54145;49.798;-97.162;2023-11-21T03:13:13;0.00;;;0.00;;
67231;SDS011;54145;49.798;-97.162;2023-11-21T03:15:14;0.20;;;0.20;;
67231;SDS011;54145;49.798;-97.162;2023-11-21T03:17:15;0.85;;;0.32;;
67231;SDS011;54145;49.798;-97.162;2023-11-21T03:19:15;0.17;;;0.13;;
67231;SDS011;54145;49.798;-97.162;2023-11-21T03:21:16;0.10;;;0.10;;
67231;SDS011;54145;49.798;-97.162;2023-11-21T03:23:17;0.28;;;0.25;;
67231;SDS011;54145;49.798;-97.162;2023-11-21T03:25:17;0.20;;;0.20;;
67231;SDS011;54145;49.798;-97.162;2023-11-21T03:27:18;0.17;;;0.10;;
67231;SDS011;54145;49.798;-97.162;2023-11-21T03:29:19;0.52;;;0.20;;
67231;SDS011;54145;49.798;-97.162;2023-11-21T03:31:22;0.20;;;0.20;;
67231;SDS011;54145;49.798;-97.162;2023-11-21T03:33:25;0.10;;;0.10;;
67231;SDS011;54145;49.798;-97.162;2023-11-21T03:35:26;0.32;;;0.15;;
67231;SDS011;54145;49.798;-97.162;2023-11-21T03:37:26;0.43;;;0.40;;
67231;SDS011;54145;49.798;-97.162;2023-11-21T03:39:30;0.00;;;0.00;;
67231;SDS011;54145;49.798;-97.162;2023-11-21T03:41:32;0.20;;;0.20;;
67231;SDS011;54145;49.798;-97.162;2023-11-21T03:43:34;0.30;;;0.10;;
67231;SDS011;54145;49.798;-97.162;2023-11-21T03:45:34;1.02;;;0.30;;
67231;SDS011;54145;49.798;-97.162;2023-11-21T03:47:38;0.20;;;0.20;;
67231;SDS011;54145;49.798;-97.162;2023-11-21T03:49:42;0.10;;;0.10;;
67231;SDS011;54145;49.798;-97.162;2023-11-21T03:51:42;0.30;;;0.30;;
67231;SDS011;54145;49.798;-97.162;2023-11-21T03:53:43;0.43;;;0.28;;
67231;SDS011;54145;49.798;-97.162;2023-11-21T03:55:44;0.35;;;0.25;;
67231;SDS011;54145;49.798;-97.162;2023-11-21T03:57:46;0.65;;;0.30;;
67231;SDS011;54145;49.798;-97.162;2023-11-21T03:59:47;0.20;;;0.20;;
67231;SDS011;54145;49.798;-97.162;2023-11-21T04:01:51;0.20;;;0.20;;
67231;SDS011;54145;49.798;-97.162;2023-11-21T04:03:51;0.20;;;0.20;;
67231;SDS011;54145;49.798;-97.162;2023-11-21T04:05:52;0.57;;;0.20;;
67231;SDS011;54145;49.798;-97.162;2023-11-21T04:07:53;0.30;;;0.20;;
67231;SDS011;54145;49.798;-97.162;2023-11-21T04:09:53;0.20;;;0.20;;
67231;SDS011;54145;49.798;-97.162;2023-11-21T04:11:54;0.63;;;0.20;;
67231;SDS011;54145;49.798;-97.162;2023-11-21T04:13:59;0.32;;;0.10;;
67231;SDS011;54145;49.798;-97.162;2023-11-21T04:15:59;0.85;;;0.22;;
67231;SDS011;54145;49.798;-97.162;2023-11-21T04:18:03;0.22;;;0.10;;
67231;SDS011;54145;49.798;-97.162;2023-11-21T04:20:04;0.15;;;0.10;;
67231;SDS011;54145;49.798;-97.162;2023-11-21T04:22:09;0.30;;;0.30;;
67231;SDS011;54145;49.798;-97.162;2023-11-21T04:24:10;0.47;;;0.20;;
67231;SDS011;54145;49.798;-97.162;2023-11-21T04:26:11;0.35;;;0.22;;
67231;SDS011;54145;49.798;-97.162;2023-11-21T04:28:12;1.77;;;0.50;;
67231;SDS011;54145;49.798;-97.162;2023-11-21T04:30:13;0.80;;;0.28;;
67231;SDS011;54145;49.798;-97.162;2023-11-21T04:32:14;0.15;;;0.15;;
67231;SDS011;54145;49.798;-97.162;2023-11-21T04:34:15;0.10;;;0.10;;
67231;SDS011;54145;49.798;-97.162;2023-11-21T04:36:16;0.70;;;0.20;;
67231;SDS011;54145;49.798;-97.162;2023-11-21T04:38:17;0.10;;;0.10;;
67231;SDS011;54145;49.798;-97.162;2023-11-21T04:40:17;0.30;;;0.10;;
67231;SDS011;54145;49.798;-97.162;2023-11-21T04:42:18;0.55;;;0.15;;
67231;SDS011;54145;49.798;-97.162;2023-11-21T04:44:19;0.38;;;0.20;;
67231;SDS011;54145;49.798;-97.162;2023-11-21T04:46:20;0.10;;;0.10;;
67231;SDS011;54145;49.798;-97.162;2023-11-21T04:48:22;0.10;;;0.10;;
67231;SDS011;54145;49.798;-97.162;2023-11-21T04:50:22;0.15;;;0.10;;
67231;SDS011;54145;49.798;-97.162;2023-11-21T04:52:23;0.60;;;0.20;;
67231;SDS011;54145;49.798;-97.162;2023-11-21T04:54:24;0.25;;;0.25;;
67231;SDS011;54145;49.798;-97.162;2023-11-21T04:56:25;0.20;;;0.20;;
67231;SDS011;54145;49.798;-97.162;2023-11-21T04:58:27;0.13;;;0.13;;
67231;SDS011;54145;49.798;-97.162;2023-11-21T05:00:28;0.10;;;0.10;;
67231;SDS011;54145;49.798;-97.162;2023-11-21T05:02:29;0.25;;;0.25;;
67231;SDS011;54145;49.798;-97.162;2023-11-21T05:04:29;0.10;;;0.10;;
67231;SDS011;54145;49.798;-97.162;2023-11-21T05:06:30;0.28;;;0.20;;
67231;SDS011;54145;49.798;-97.162;2023-11-21T05:08:31;0.10;;;0.10;;
67231;SDS011;54145;49.798;-97.162;2023-11-21T05:10:31;0.20;;;0.10;;
67231;SDS011;54145;49.798;-97.162;2023-11-21T05:12:39;0.15;;;0.05;;
67231;SDS011;54145;49.798;-97.162;2023-11-21T05:14:40;0.80;;;0.22;;
67231;SDS011;54145;49.798;-97.162;2023-11-21T05:16:40;0.10;;;0.10;;
67231;SDS011;54145;49.798;-97.162;2023-11-21T05:18:41;0.17;;;0.17;;
67231;SDS011;54145;49.798;-97.162;2023-11-21T05:20:42;0.00;;;0.00;;
67231;SDS011;54145;49.798;-97.162;2023-11-21T05:22:42;0.43;;;0.17;;
67231;SDS011;54145;49.798;-97.162;2023-11-21T05:24:43;0.30;;;0.20;;
67231;SDS011;54145;49.798;-97.162;2023-11-21T05:26:47;0.30;;;0.20;;
67231;SDS011;54145;49.798;-97.162;2023-11-21T05:28:48;0.35;;;0.25;;
67231;SDS011;54145;49.798;-97.162;2023-11-21T05:30:51;0.13;;;0.13;;
67231;SDS011;54145;49.798;-97.162;2023-11-21T05:32:53;0.22;;;0.03;;
67231;SDS011;54145;49.798;-97.162;2023-11-21T05:34:55;0.00;;;0.00;;
67231;SDS011;54145;49.798;-97.162;2023-11-21T05:36:56;0.15;;;0.15;;
67231;SDS011;54145;49.798;-97.162;2023-11-21T05:38:58;0.10;;;0.10;;
67231;SDS011;54145;49.798;-97.162;2023-11-21T05:40:59;0.05;;;0.05;;
67231;SDS011;54145;49.798;-97.162;2023-11-21T05:43:00;0.10;;;0.10;;
67231;SDS011;54145;49.798;-97.162;2023-11-21T05:45:00;0.10;;;0.10;;
67231;SDS011;54145;49.798;-97.162;2023-11-21T05:47:11;0.20;;;0.08;;
67231;SDS011;54145;49.798;-97.162;2023-11-21T05:49:13;0.05;;;0.05;;
67231;SDS011;54145;49.798;-97.162;2023-11-21T05:51:15;0.10;;;0.10;;
67231;SDS011;54145;49.798;-97.162;2023-11-21T05:53:17;0.13;;;0.10;;
67231;SDS011;54145;49.798;-97.162;2023-11-21T05:55:18;0.10;;;0.10;;
67231;SDS011;54145;49.798;-97.162;2023-11-21T05:57:24;0.03;;;0.03;;
67231;SDS011;54145;49.798;-97.162;2023-11-21T05:59:25;0.10;;;0.10;;
67231;SDS011;54145;49.798;-97.162;2023-11-21T06:04:00;0.35;;;0.20;;
67231;SDS011;54145;49.798;-97.162;2023-11-21T06:06:40;0.10;;;0.10;;
67231;SDS011;54145;49.798;-97.162;2023-11-21T06:08:41;0.10;;;0.10;;
67231;SDS011;54145;49.798;-97.162;2023-11-21T06:10:45;0.25;;;0.10;;
67231;SDS011;54145;49.798;-97.162;2023-11-21T06:12:49;0.30;;;0.10;;
67231;SDS011;54145;49.798;-97.162;2023-11-21T06:14:50;2.58;;;0.50;;
67231;SDS011;54145;49.798;-97.162;2023-11-21T06:16:51;0.10;;;0.10;;
67231;SDS011;54145;49.798;-97.162;2023-11-21T06:18:53;0.00;;;0.00;;
67231;SDS011;54145;49.798;-97.162;2023-11-21T06:20:54;0.50;;;0.20;;
67231;SDS011;54145;49.798;-97.162;2023-11-21T06:22:55;0.03;;;0.03;;
67231;SDS011;54145;49.798;-97.162;2023-11-21T06:24:55;0.10;;;0.10;;
67231;SDS011;54145;49.798;-97.162;2023-11-21T06:26:56;0.00;;;0.00;;
67231;SDS011;54145;49.798;-97.162;2023-11-21T06:28:57;0.20;;;0.20;;
67231;SDS011;54145;49.798;-97.162;2023-11-21T06:30:57;0.05;;;0.05;;
67231;SDS011;54145;49.798;-97.162;2023-11-21T06:32:58;0.10;;;0.10;;
67231;SDS011;54145;49.798;-97.162;2023-11-21T06:34:59;0.10;;;0.10;;
67231;SDS011;54145;49.798;-97.162;2023-11-21T06:37:00;0.10;;;0.10;;
67231;SDS011;54145;49.798;-97.162;2023-11-21T06:39:01;0.00;;;0.00;;
67231;SDS011;54145;49.798;-97.162;2023-11-21T06:41:02;0.10;;;0.10;;
67231;SDS011;54145;49.798;-97.162;2023-11-21T06:43:04;0.10;;;0.10;;
67231;SDS011;54145;49.798;-97.162;2023-11-21T06:45:07;0.15;;;0.13;;
67231;SDS011;54145;49.798;-97.162;2023-11-21T06:47:11;0.90;;;0.32;;
67231;SDS011;54145;49.798;-97.162;2023-11-21T06:49:11;0.10;;;0.10;;
67231;SDS011;54145;49.798;-97.162;2023-11-21T06:51:12;0.00;;;0.00;;
67231;SDS011;54145;49.798;-97.162;2023-11-21T06:53:13;0.03;;;0.03;;
67231;SDS011;54145;49.798;-97.162;2023-11-21T06:55:14;0.10;;;0.10;;
67231;SDS011;54145;49.798;-97.162;2023-11-21T06:59:16;0.00;;;0.00;;
67231;SDS011;54145;49.798;-97.162;2023-11-21T07:01:17;0.40;;;0.17;;
67231;SDS011;54145;49.798;-97.162;2023-11-21T07:03:18;0.13;;;0.13;;
67231;SDS011;54145;49.798;-97.162;2023-11-21T07:05:20;0.10;;;0.10;;
67231;SDS011;54145;49.798;-97.162;2023-11-21T07:09:22;0.20;;;0.10;;
67231;SDS011;54145;49.798;-97.162;2023-11-21T07:11:22;0.32;;;0.17;;
67231;SDS011;54145;49.798;-97.162;2023-11-21T07:13:23;0.22;;;0.22;;
67231;SDS011;54145;49.798;-97.162;2023-11-21T07:15:24;0.15;;;0.15;;
67231;SDS011;54145;49.798;-97.162;2023-11-21T07:17:26;0.10;;;0.10;;
67231;SDS011;54145;49.798;-97.162;2023-11-21T07:19:27;0.20;;;0.10;;
67231;SDS011;54145;49.798;-97.162;2023-11-21T07:21:27;0.10;;;0.10;;
67231;SDS011;54145;49.798;-97.162;2023-11-21T07:23:28;0.75;;;0.20;;
67231;SDS011;54145;49.798;-97.162;2023-11-21T07:25:29;0.10;;;0.10;;
67231;SDS011;54145;49.798;-97.162;2023-11-21T07:27:29;0.20;;;0.10;;
67231;SDS011;54145;49.798;-97.162;2023-11-21T07:29:30;0.10;;;0.10;;
67231;SDS011;54145;49.798;-97.162;2023-11-21T07:31:31;0.77;;;0.25;;
67231;SDS011;54145;49.798;-97.162;2023-11-21T07:33:34;0.15;;;0.13;;
67231;SDS011;54145;49.798;-97.162;2023-11-21T07:35:35;0.10;;;0.10;;
67231;SDS011;54145;49.798;-97.162;2023-11-21T07:37:35;0.10;;;0.10;;
67231;SDS011;54145;49.798;-97.162;2023-11-21T07:39:36;0.10;;;0.10;;
67231;SDS011;54145;49.798;-97.162;2023-11-21T07:41:37;0.00;;;0.00;;
67231;SDS011;54145;49.798;-97.162;2023-11-21T07:43:45;0.52;;;0.15;;
67231;SDS011;54145;49.798;-97.162;2023-11-21T07:45:46;0.10;;;0.10;;
67231;SDS011;54145;49.798;-97.162;2023-11-21T07:47:47;0.20;;;0.10;;
67231;SDS011;54145;49.798;-97.162;2023-11-21T07:49:48;0.10;;;0.10;;
67231;SDS011;54145;49.798;-97.162;2023-11-21T07:51:48;0.13;;;0.13;;
67231;SDS011;54145;49.798;-97.162;2023-11-21T07:53:49;0.10;;;0.10;;
67231;SDS011;54145;49.798;-97.162;2023-11-21T07:55:50;0.10;;;0.10;;
67231;SDS011;54145;49.798;-97.162;2023-11-21T07:57:50;0.00;;;0.00;;
67231;SDS011;54145;49.798;-97.162;2023-11-21T07:59:54;0.38;;;0.20;;
67231;SDS011;54145;49.798;-97.162;2023-11-21T08:01:55;0.10;;;0.10;;
67231;SDS011;54145;49.798;-97.162;2023-11-21T08:04:17;0.40;;;0.10;;
67231;SDS011;54145;49.798;-97.162;2023-11-21T08:06:18;0.32;;;0.17;;
67231;SDS011;54145;49.798;-97.162;2023-11-21T08:08:19;0.10;;;0.10;;
67231;SDS011;54145;49.798;-97.162;2023-11-21T08:10:20;0.13;;;0.10;;
67231;SDS011;54145;49.798;-97.162;2023-11-21T08:12:21;0.05;;;0.05;;
67231;SDS011;54145;49.798;-97.162;2023-11-21T08:14:22;0.15;;;0.10;;
67231;SDS011;54145;49.798;-97.162;2023-11-21T08:16:26;0.10;;;0.10;;
67231;SDS011;54145;49.798;-97.162;2023-11-21T08:18:27;0.10;;;0.10;;
67231;SDS011;54145;49.798;-97.162;2023-11-21T08:20:28;0.00;;;0.00;;
67231;SDS011;54145;49.798;-97.162;2023-11-21T08:22:29;0.00;;;0.00;;
67231;SDS011;54145;49.798;-97.162;2023-11-21T08:24:30;0.15;;;0.10;;
67231;SDS011;54145;49.798;-97.162;2023-11-21T08:26:31;0.20;;;0.10;;
67231;SDS011;54145;49.798;-97.162;2023-11-21T08:28:32;0.10;;;0.10;;
67231;SDS011;54145;49.798;-97.162;2023-11-21T08:30:33;0.15;;;0.15;;
67231;SDS011;54145;49.798;-97.162;2023-11-21T08:32:35;0.10;;;0.08;;
67231;SDS011;54145;49.798;-97.162;2023-11-21T08:34:35;0.10;;;0.10;;
67231;SDS011;54145;49.798;-97.162;2023-11-21T08:36:40;0.00;;;0.00;;
67231;SDS011;54145;49.798;-97.162;2023-11-21T08:38:41;0.00;;;0.00;;
67231;SDS011;54145;49.798;-97.162;2023-11-21T08:40:42;0.08;;;0.08;;
67231;SDS011;54145;49.798;-97.162;2023-11-21T08:42:42;0.20;;;0.20;;
67231;SDS011;54145;49.798;-97.162;2023-11-21T08:44:43;0.10;;;0.10;;
67231;SDS011;54145;49.798;-97.162;2023-11-21T08:46:44;0.10;;;0.10;;
67231;SDS011;54145;49.798;-97.162;2023-11-21T08:48:48;0.25;;;0.20;;
67231;SDS011;54145;49.798;-97.162;2023-11-21T08:50:48;0.10;;;0.10;;
67231;SDS011;54145;49.798;-97.162;2023-11-21T08:52:49;0.20;;;0.10;;
67231;SDS011;54145;49.798;-97.162;2023-11-21T08:54:51;0.10;;;0.10;;
67231;SDS011;54145;49.798;-97.162;2023-11-21T08:57:07;0.05;;;0.05;;
67231;SDS011;54145;49.798;-97.162;2023-11-21T08:59:09;0.10;;;0.10;;
67231;SDS011;54145;49.798;-97.162;2023-11-21T09:01:09;0.10;;;0.10;;
67231;SDS011;54145;49.798;-97.162;2023-11-21T09:03:10;0.10;;;0.10;;
67231;SDS011;54145;49.798;-97.162;2023-11-21T09:05:11;0.10;;;0.10;;
67231;SDS011;54145;49.798;-97.162;2023-11-21T09:09:13;0.10;;;0.10;;
67231;SDS011;54145;49.798;-97.162;2023-11-21T09:11:14;1.17;;;0.10;;
67231;SDS011;54145;49.798;-97.162;2023-11-21T09:13:15;0.10;;;0.10;;
67231;SDS011;54145;49.798;-97.162;2023-11-21T09:15:17;0.00;;;0.00;;
67231;SDS011;54145;49.798;-97.162;2023-11-21T09:17:18;0.10;;;0.10;;
67231;SDS011;54145;49.798;-97.162;2023-11-21T09:19:19;0.10;;;0.10;;
67231;SDS011;54145;49.798;-97.162;2023-11-21T09:21:23;0.10;;;0.10;;
67231;SDS011;54145;49.798;-97.162;2023-11-21T09:23:25;0.08;;;0.08;;
67231;SDS011;54145;49.798;-97.162;2023-11-21T09:25:25;0.10;;;0.10;;
67231;SDS011;54145;49.798;-97.162;2023-11-21T09:27:26;0.00;;;0.00;;
67231;SDS011;54145;49.798;-97.162;2023-11-21T09:29:27;0.00;;;0.00;;
67231;SDS011;54145;49.798;-97.162;2023-11-21T09:31:29;0.10;;;0.10;;
67231;SDS011;54145;49.798;-97.162;2023-11-21T09:33:31;0.10;;;0.10;;
67231;SDS011;54145;49.798;-97.162;2023-11-21T09:35:32;0.10;;;0.10;;
67231;SDS011;54145;49.798;-97.162;2023-11-21T09:37:33;0.10;;;0.10;;
67231;SDS011;54145;49.798;-97.162;2023-11-21T09:39:34;0.10;;;0.10;;
67231;SDS011;54145;49.798;-97.162;2023-11-21T09:41:50;0.08;;;0.08;;
67231;SDS011;54145;49.798;-97.162;2023-11-21T09:43:52;0.40;;;0.13;;
67231;SDS011;54145;49.798;-97.162;2023-11-21T09:46:02;0.10;;;0.10;;
67231;SDS011;54145;49.798;-97.162;2023-11-21T09:48:09;0.55;;;0.10;;
67231;SDS011;54145;49.798;-97.162;2023-11-21T09:50:11;1.08;;;0.15;;
67231;SDS011;54145;49.798;-97.162;2023-11-21T09:52:18;0.10;;;0.00;;
67231;SDS011;54145;49.798;-97.162;2023-11-21T09:54:23;0.00;;;0.00;;
67231;SDS011;54145;49.798;-97.162;2023-11-21T09:56:24;0.10;;;0.10;;
67231;SDS011;54145;49.798;-97.162;2023-11-21T10:00:26;0.00;;;0.00;;
67231;SDS011;54145;49.798;-97.162;2023-11-21T10:02:28;0.55;;;0.10;;
67231;SDS011;54145;49.798;-97.162;2023-11-21T10:04:32;0.10;;;0.10;;
67231;SDS011;54145;49.798;-97.162;2023-11-21T10:06:33;0.00;;;0.00;;
67231;SDS011;54145;49.798;-97.162;2023-11-21T10:08:34;0.13;;;0.10;;
67231;SDS011;54145;49.798;-97.162;2023-11-21T10:10:36;0.00;;;0.00;;
67231;SDS011;54145;49.798;-97.162;2023-11-21T10:12:38;0.75;;;0.22;;
67231;SDS011;54145;49.798;-97.162;2023-11-21T10:14:40;0.00;;;0.00;;
67231;SDS011;54145;49.798;-97.162;2023-11-21T10:16:41;0.00;;;0.00;;
67231;SDS011;54145;49.798;-97.162;2023-11-21T10:18:43;0.25;;;0.10;;
67231;SDS011;54145;49.798;-97.162;2023-11-21T10:20:46;0.15;;;0.10;;
67231;SDS011;54145;49.798;-97.162;2023-11-21T10:22:52;0.10;;;0.10;;
67231;SDS011;54145;49.798;-97.162;2023-11-21T10:24:52;0.00;;;0.00;;
67231;SDS011;54145;49.798;-97.162;2023-11-21T10:26:53;0.40;;;0.10;;
67231;SDS011;54145;49.798;-97.162;2023-11-21T10:29:03;0.00;;;0.00;;
67231;SDS011;54145;49.798;-97.162;2023-11-21T10:31:06;0.05;;;0.05;;
67231;SDS011;54145;49.798;-97.162;2023-11-21T10:33:07;0.00;;;0.00;;
67231;SDS011;54145;49.798;-97.162;2023-11-21T10:35:08;0.25;;;0.10;;
67231;SDS011;54145;49.798;-97.162;2023-11-21T10:37:12;0.20;;;0.20;;
67231;SDS011;54145;49.798;-97.162;2023-11-21T10:39:19;0.10;;;0.10;;
67231;SDS011;54145;49.798;-97.162;2023-11-21T10:41:20;0.10;;;0.10;;
67231;SDS011;54145;49.798;-97.162;2023-11-21T10:43:24;0.10;;;0.00;;
67231;SDS011;54145;49.798;-97.162;2023-11-21T10:45:25;0.10;;;0.10;;
67231;SDS011;54145;49.798;-97.162;2023-11-21T10:49:28;0.10;;;0.10;;
67231;SDS011;54145;49.798;-97.162;2023-11-21T10:51:29;0.20;;;0.13;;
67231;SDS011;54145;49.798;-97.162;2023-11-21T10:53:30;0.10;;;0.10;;
67231;SDS011;54145;49.798;-97.162;2023-11-21T10:55:32;0.10;;;0.10;;
67231;SDS011;54145;49.798;-97.162;2023-11-21T10:57:33;0.15;;;0.10;;
67231;SDS011;54145;49.798;-97.162;2023-11-21T10:59:33;0.10;;;0.10;;
67231;SDS011;54145;49.798;-97.162;2023-11-21T11:01:36;0.00;;;0.00;;
67231;SDS011;54145;49.798;-97.162;2023-11-21T11:03:37;0.20;;;0.10;;
67231;SDS011;54145;49.798;-97.162;2023-11-21T11:05:38;0.00;;;0.00;;
67231;SDS011;54145;49.798;-97.162;2023-11-21T11:07:59;0.00;;;0.00;;
67231;SDS011;54145;49.798;-97.162;2023-11-21T11:10:01;0.00;;;0.00;;
67231;SDS011;54145;49.798;-97.162;2023-11-21T11:12:04;0.10;;;0.10;;
67231;SDS011;54145;49.798;-97.162;2023-11-21T11:14:07;0.43;;;0.30;;
67231;SDS011;54145;49.798;-97.162;2023-11-21T11:16:09;0.00;;;0.00;;
67231;SDS011;54145;49.798;-97.162;2023-11-21T11:18:10;0.25;;;0.10;;
67231;SDS011;54145;49.798;-97.162;2023-11-21T11:20:12;0.03;;;0.00;;
67231;SDS011;54145;49.798;-97.162;2023-11-21T11:26:26;0.13;;;0.13;;
67231;SDS011;54145;49.798;-97.162;2023-11-21T11:30:38;0.03;;;0.03;;
67231;SDS011;54145;49.798;-97.162;2023-11-21T11:32:51;0.00;;;0.00;;
67231;SDS011;54145;49.798;-97.162;2023-11-21T11:35:17;0.10;;;0.10;;
67231;SDS011;54145;49.798;-97.162;2023-11-21T11:37:19;0.10;;;0.10;;
67231;SDS011;54145;49.798;-97.162;2023-11-21T11:39:29;0.10;;;0.10;;
67231;SDS011;54145;49.798;-97.162;2023-11-21T11:41:31;0.10;;;0.10;;
67231;SDS011;54145;49.798;-97.162;2023-11-21T11:45:33;0.00;;;0.00;;
67231;SDS011;54145;49.798;-97.162;2023-11-21T11:47:35;0.10;;;0.10;;
67231;SDS011;54145;49.798;-97.162;2023-11-21T11:49:38;0.20;;;0.10;;
67231;SDS011;54145;49.798;-97.162;2023-11-21T11:54:14;0.22;;;0.13;;
67231;SDS011;54145;49.798;-97.162;2023-11-21T11:56:31;0.10;;;0.10;;
67231;SDS011;54145;49.798;-97.162;2023-11-21T11:58:38;0.00;;;0.00;;
67231;SDS011;54145;49.798;-97.162;2023-11-21T12:00:39;0.20;;;0.17;;
67231;SDS011;54145;49.798;-97.162;2023-11-21T12:02:40;0.00;;;0.00;;
67231;SDS011;54145;49.798;-97.162;2023-11-21T12:04:41;4.28;;;0.15;;
67231;SDS011;54145;49.798;-97.162;2023-11-21T12:06:42;0.20;;;0.10;;
67231;SDS011;54145;49.798;-97.162;2023-11-21T12:08:46;0.10;;;0.10;;
67231;SDS011;54145;49.798;-97.162;2023-11-21T12:10:47;0.43;;;0.17;;
67231;SDS011;54145;49.798;-97.162;2023-11-21T12:12:49;0.00;;;0.00;;
67231;SDS011;54145;49.798;-97.162;2023-11-21T12:14:50;0.15;;;0.10;;
67231;SDS011;54145;49.798;-97.162;2023-11-21T12:16:51;0.85;;;0.25;;
67231;SDS011;54145;49.798;-97.162;2023-11-21T12:18:52;0.08;;;0.05;;
67231;SDS011;54145;49.798;-97.162;2023-11-21T12:20:54;0.10;;;0.10;;